Time;durP1;ratioP1;P1;durP2;ratioP2;P2;SDS_P1;SDS_P2;PMS_P1;PMS_P2;Temp;Humidity;BMP_temperature;BMP_pressure;BME280_temperature;BME280_humidity;BME280_pressure;Samples;Min_cycle;Max_cycle;Signal;HPM_P1;HPM_P2
2021/10/27 00:03:12;;;;;;;;;;;4.20;99.90;;;;;;8331265;28;19908;-66
2021/10/27 00:07:15;;;;;;;;;;;4.10;99.90;;;;;;8312879;28;19909;-66
2021/10/27 00:11:16;;;;;;;;;;;4.10;99.90;;;;;;8313063;28;19924;-64
2021/10/27 00:15:17;;;;;;;;;;;3.90;99.90;;;;;;8355789;22;19924;-63
2021/10/27 00:19:17;;;;;;;;;;;4.00;99.90;;;;;;8427933;28;19915;-63
2021/10/27 00:23:18;;;;;;;;;;;4.00;99.90;;;;;;8430108;28;20536;-63
2021/10/27 00:27:18;;;;;;;;;;;3.80;99.90;;;;;;8429283;28;19910;-63
2021/10/27 00:31:19;;;;;;;;;;;3.90;99.90;;;;;;8428475;28;19907;-63
2021/10/27 00:35:20;;;;;;;;;;;4.00;99.90;;;;;;8429372;28;19970;-63
2021/10/27 00:39:20;;;;;;;;;;;3.90;99.90;;;;;;8427960;28;19904;-63
2021/10/27 00:43:21;;;;;;;;;;;3.60;99.90;;;;;;8429633;28;19911;-63
2021/10/27 00:47:22;;;;;;;;;;;3.70;99.90;;;;;;8429119;28;19994;-63
2021/10/27 00:51:22;;;;;;;;;;;3.70;99.90;;;;;;8427367;28;20380;-63
2021/10/27 00:55:23;;;;;;;;;;;3.70;99.90;;;;;;8427279;28;19914;-63
2021/10/27 00:59:24;;;;;;;;;;;3.80;99.90;;;;;;8427157;28;19904;-63
2021/10/27 01:03:26;;;;;;;;;;;3.70;99.90;;;;;;8429043;28;19903;-63
2021/10/27 01:07:26;;;;;;;;;;;3.60;99.90;;;;;;8427174;28;19904;-63
2021/10/27 01:11:27;;;;;;;;;;;3.50;99.90;;;;;;8427705;28;19908;-63
2021/10/27 01:15:27;;;;;;;;;;;3.50;99.90;;;;;;8428175;28;19912;-63
2021/10/27 01:19:29;;;;;;;;;;;3.50;99.90;;;;;;8427801;28;19904;-63
2021/10/27 01:23:30;;;;;;;;;;;3.30;99.90;;;;;;8427697;28;19904;-63
2021/10/27 01:27:31;;;;;;;;;;;3.30;99.90;;;;;;8427640;28;20010;-64
2021/10/27 01:31:31;;;;;;;;;;;3.20;99.90;;;;;;8425985;28;20330;-63
2021/10/27 01:35:32;;;;;;;;;;;3.40;99.90;;;;;;8427558;28;19908;-63
2021/10/27 01:39:32;;;;;;;;;;;3.50;99.90;;;;;;8427473;28;19954;-63
2021/10/27 01:43:53;;;;;;;;;;;3.60;99.90;;;;;;8427720;28;20253;-63
2021/10/27 01:47:53;;;;;;;;;;;3.80;99.90;;;;;;8426398;28;20380;-63
2021/10/27 01:51:55;;;;;;;;;;;3.80;99.90;;;;;;8427023;28;19914;-63
2021/10/27 01:55:56;;;;;;;;;;;3.90;99.90;;;;;;8425467;28;19969;-63
2021/10/27 01:59:56;;;;;;;;;;;3.80;99.90;;;;;;8426953;28;19904;-63
2021/10/27 02:03:57;;;;;;;;;;;3.90;99.90;;;;;;8427095;28;20388;-63
2021/10/27 02:07:58;;;;;;;;;;;3.90;99.90;;;;;;8427137;28;20462;-63
2021/10/27 02:11:58;;;;;;;;;;;4.00;99.90;;;;;;8426701;28;20641;-63
2021/10/27 02:15:59;;;;;;;;;;;4.10;99.90;;;;;;8425629;28;19919;-63
2021/10/27 02:19:59;;;;;;;;;;;4.30;99.90;;;;;;8425359;28;19911;-63
2021/10/27 02:24:00;;;;;;;;;;;4.40;99.90;;;;;;8425324;28;20433;-63
2021/10/27 02:28:00;;;;;;;;;;;4.30;99.90;;;;;;8425305;28;19908;-63
2021/10/27 02:32:01;;;;;;;;;;;4.30;99.90;;;;;;8427038;28;20376;-63
2021/10/27 02:36:02;;;;;;;;;;;4.70;99.90;;;;;;8433431;28;19915;-63
2021/10/27 02:40:02;;;;;;;;;;;4.80;99.90;;;;;;8431902;28;19904;-63
2021/10/27 02:44:03;;;;;;;;;;;4.60;99.90;;;;;;8432036;28;19911;-63
2021/10/27 02:48:04;;;;;;;;;;;4.50;99.90;;;;;;8432687;28;20435;-63
2021/10/27 02:52:04;;;;;;;;;;;4.80;99.90;;;;;;8432785;28;19940;-63
2021/10/27 02:56:05;;;;;;;;;;;4.50;99.90;;;;;;8432650;28;19919;-63
2021/10/27 03:00:06;;;;;;;;;;;4.40;99.90;;;;;;8430758;28;20252;-63
2021/10/27 03:04:08;;;;;;;;;;;4.40;99.90;;;;;;8432653;28;19908;-63
2021/10/27 03:08:08;;;;;;;;;;;4.50;99.90;;;;;;8430562;28;19908;-63
2021/10/27 03:12:09;;;;;;;;;;;4.40;99.90;;;;;;8432154;28;19910;-63
2021/10/27 03:16:09;;;;;;;;;;;4.60;99.90;;;;;;8430758;28;19999;-63
2021/10/27 03:20:10;;;;;;;;;;;4.70;99.90;;;;;;8430398;28;19911;-63
2021/10/27 03:24:10;;;;;;;;;;;4.70;99.90;;;;;;8402883;28;19908;-63
2021/10/27 03:28:11;;;;;;;;;;;4.70;99.90;;;;;;8409689;28;19953;-63
2021/10/27 03:32:13;;;;;;;;;;;4.50;99.90;;;;;;8402840;28;19908;-63
2021/10/27 03:36:13;;;;;;;;;;;4.80;99.90;;;;;;8397691;28;19909;-63
2021/10/27 03:40:14;;;;;;;;;;;4.80;99.90;;;;;;8401106;28;19908;-63
2021/10/27 03:44:14;;;;;;;;;;;4.80;99.90;;;;;;8404457;28;19905;-63
2021/10/27 03:48:15;;;;;;;;;;;4.80;99.90;;;;;;8402194;28;19904;-63
2021/10/27 03:52:16;;;;;;;;;;;4.80;99.90;;;;;;8426121;28;19904;-63
2021/10/27 03:56:17;;;;;;;;;;;4.80;99.90;;;;;;8422777;28;19919;-63
2021/10/27 04:00:17;;;;;;;;;;;4.80;99.90;;;;;;8428087;28;20040;-64
2021/10/27 04:04:18;;;;;;;;;;;4.80;99.90;;;;;;8428790;28;19919;-64
2021/10/27 04:08:19;;;;;;;;;;;4.80;99.90;;;;;;8429573;28;20422;-63
2021/10/27 04:12:19;;;;;;;;;;;4.80;99.90;;;;;;8403763;28;19915;-63
2021/10/27 04:16:19;;;;;;;;;;;4.80;99.90;;;;;;8396760;28;19912;-63
2021/10/27 04:20:20;;;;;;;;;;;4.90;99.90;;;;;;8391472;28;19911;-64
2021/10/27 04:24:20;;;;;;;;;;;4.80;99.90;;;;;;8413356;28;19912;-63
2021/10/27 04:28:21;;;;;;;;;;;4.90;99.90;;;;;;8429524;28;19904;-64
2021/10/27 04:32:21;;;;;;;;;;;5.50;99.90;;;;;;8411610;28;19948;-63
2021/10/27 04:36:22;;;;;;;;;;;6.30;99.90;;;;;;8404470;28;19912;-63
2021/10/27 04:40:22;;;;;;;;;;;6.90;99.90;;;;;;8415997;28;19908;-63
2021/10/27 04:44:23;;;;;;;;;;;7.30;99.90;;;;;;8401240;28;19908;-63
2021/10/27 04:48:23;;;;;;;;;;;6.30;99.90;;;;;;8394898;28;19934;-63
2021/10/27 04:52:24;;;;;;;;;;;6.30;99.90;;;;;;8438612;28;19907;-63
2021/10/27 04:56:25;;;;;;;;;;;5.90;99.90;;;;;;8444112;27;19920;-63
2021/10/27 05:00:25;;;;;;;;;;;5.80;99.90;;;;;;8413142;28;19935;-63
2021/10/27 05:04:26;;;;;;;;;;;5.60;99.90;;;;;;8415016;28;20376;-64
2021/10/27 05:08:26;;;;;;;;;;;5.50;99.90;;;;;;8398959;28;20015;-63
2021/10/27 05:12:27;;;;;;;;;;;5.40;99.90;;;;;;8407553;28;19908;-68
2021/10/27 05:16:28;;;;;;;;;;;5.30;99.90;;;;;;8419540;28;19916;-69
2021/10/27 05:20:28;;;;;;;;;;;5.40;99.90;;;;;;8420637;28;19995;-68
2021/10/27 05:24:29;;;;;;;;;;;5.30;99.90;;;;;;8404930;28;19911;-69
2021/10/27 05:28:29;;;;;;;;;;;5.20;99.90;;;;;;8411970;28;19908;-68
2021/10/27 05:32:30;;;;;;;;;;;5.00;99.90;;;;;;8426067;28;19954;-68
2021/10/27 05:36:31;;;;;;;;;;;5.00;99.90;;;;;;8415519;28;19908;-66
2021/10/27 05:40:31;;;;;;;;;;;4.90;99.90;;;;;;8409687;28;19962;-66
2021/10/27 05:44:32;;;;;;;;;;;4.80;99.90;;;;;;8419966;28;20021;-66
2021/10/27 05:48:37;;;;;;;;;;;4.90;99.90;;;;;;8415514;28;19904;-66
2021/10/27 05:56:39;;;;;;;;;;;4.90;99.90;;;;;;8418779;28;20437;-65
2021/10/27 06:00:40;;;;;;;;;;;4.90;99.90;;;;;;8423024;28;20277;-65
2021/10/27 06:04:41;;;;;;;;;;;4.90;99.90;;;;;;8424548;28;19958;-66
2021/10/27 06:08:41;;;;;;;;;;;4.80;99.90;;;;;;8420015;28;19912;-65
2021/10/27 06:12:41;;;;;;;;;;;4.80;99.90;;;;;;8424498;28;20571;-66
2021/10/27 06:16:42;;;;;;;;;;;5.00;99.90;;;;;;8423228;28;19970;-65
2021/10/27 06:20:42;;;;;;;;;;;5.10;99.90;;;;;;8423513;28;19911;-66
2021/10/27 06:24:43;;;;;;;;;;;5.00;99.90;;;;;;8425282;28;19911;-66
2021/10/27 06:28:58;;;;;;;;;;;4.90;99.90;;;;;;8425198;28;19908;-65
2021/10/27 06:33:07;;;;;;;;;;;5.00;99.90;;;;;;8424883;28;19908;-66
2021/10/27 06:37:23;;;;;;;;;;;5.30;99.90;;;;;;8421325;28;20315;-66
2021/10/27 06:49:57;;;;;;;;;;;5.70;99.90;;;;;;8414032;28;19908;-66
2021/10/27 06:53:57;;;;;;;;;;;5.60;99.90;;;;;;8393802;28;20312;-66
2021/10/27 06:57:58;;;;;;;;;;;5.60;99.90;;;;;;8409207;28;19919;-65
2021/10/27 07:18:56;;;;;;;;;;;6.00;99.90;;;;;;8417851;28;20399;-67
2021/10/27 07:23:00;;;;;;;;;;;6.00;99.90;;;;;;8419793;28;19912;-66
2021/10/27 07:27:05;;;;;;;;;;;5.90;99.90;;;;;;8402282;28;20653;-65
2021/10/27 07:31:08;;;;;;;;;;;5.80;99.90;;;;;;8423984;28;19915;-66
2021/10/27 07:43:30;;;;;;;;;;;6.00;99.90;;;;;;8406675;28;19994;-65
2021/10/27 07:47:31;;;;;;;;;;;6.00;99.90;;;;;;8402539;28;19954;-66
2021/10/27 07:51:31;;;;;;;;;;;6.40;99.90;;;;;;8405993;28;20337;-64
2021/10/27 07:55:33;;;;;;;;;;;6.90;99.90;;;;;;8410204;28;19912;-66
2021/10/27 07:59:34;;;;;;;;;;;7.30;99.90;;;;;;8410169;28;19904;-65
2021/10/27 08:03:34;;;;;;;;;;;7.30;99.90;;;;;;8404207;28;19996;-65
2021/10/27 08:07:40;;;;;;;;;;;7.50;99.90;;;;;;8427988;28;19911;-65
2021/10/27 08:11:41;;;;;;;;;;;7.80;99.90;;;;;;8406315;28;20290;-66
2021/10/27 08:15:42;;;;;;;;;;;8.10;99.90;;;;;;8401084;28;19916;-65
2021/10/27 08:19:43;;;;;;;;;;;8.20;99.90;;;;;;8408861;28;19930;-65
2021/10/27 08:23:45;;;;;;;;;;;8.40;99.90;;;;;;8427834;28;19991;-66
2021/10/27 08:27:46;;;;;;;;;;;8.60;99.90;;;;;;8414708;28;19908;-66
2021/10/27 08:31:54;;;;;;;;;;;9.00;99.90;;;;;;8403286;28;20321;-66
2021/10/27 08:35:55;;;;;;;;;;;9.20;99.90;;;;;;8423899;28;19935;-66
2021/10/27 08:39:55;;;;;;;;;;;9.40;99.90;;;;;;8407078;28;19955;-67
2021/10/27 08:43:55;;;;;;;;;;;9.50;99.90;;;;;;8369192;28;19909;-65
2021/10/27 10:11:58;;;;;;;;;;;10.20;99.90;;;;;;8382901;28;20465;-65
2021/10/27 10:15:58;;;;;;;;;;;10.60;99.90;;;;;;8393532;28;19939;-66
2021/10/27 10:19:59;;;;;;;;;;;11.10;99.90;;;;;;8393096;28;20003;-65
2021/10/27 10:24:15;;;;;;;;;;;11.20;99.90;;;;;;8393594;28;19910;-65
2021/10/27 10:28:17;;;;;;;;;;;11.40;99.90;;;;;;8409290;28;19904;-65
2021/10/27 10:32:22;;;;;;;;;;;11.30;99.90;;;;;;8408431;28;19904;-65
2021/10/27 10:36:25;;;;;;;;;;;11.40;99.90;;;;;;8418514;28;20007;-65
2021/10/27 10:40:37;;;;;;;;;;;11.60;99.90;;;;;;8380346;28;19904;-65
2021/10/27 11:03:41;;;;;;;;;;;12.30;99.90;;;;;;8413873;28;19931;-65
2021/10/27 11:41:59;;;;;;;;;;;22.80;99.90;;;;;;8431348;28;20526;-66
2021/10/27 11:46:11;;;;;;;;;;;24.40;99.90;;;;;;8431081;28;19930;-66
2021/10/27 11:50:13;;;;;;;;;;;26.20;92.00;;;;;;8428194;28;19936;-66
2021/10/27 11:54:15;;;;;;;;;;;28.40;77.30;;;;;;8431107;28;19961;-66
2021/10/27 11:58:15;;;;;;;;;;;30.40;66.80;;;;;;8429978;28;20424;-66
2021/10/27 12:02:17;;;;;;;;;;;32.10;57.40;;;;;;8430950;28;20002;-66
2021/10/27 12:06:28;;;;;;;;;;;33.40;52.70;;;;;;8430395;28;20376;-66
2021/10/27 12:10:43;;;;;;;;;;;32.40;51.80;;;;;;8430375;28;20007;-66
2021/10/27 12:19:26;;;;;;;;;;;34.30;47.20;;;;;;8425773;28;19938;-66
2021/10/27 12:23:29;;;;;;;;;;;34.00;45.70;;;;;;8414659;28;20344;-66
2021/10/27 12:27:34;;;;;;;;;;;34.70;45.00;;;;;;8385938;22;19936;-68
2021/10/27 12:31:35;;;;;;;;;;;34.50;44.60;;;;;;8343818;28;19905;-68
2021/10/27 12:35:35;;;;;;;;;;;35.30;43.40;;;;;;8362516;28;19955;-67
2021/10/27 12:39:43;;;;;;;;;;;35.10;42.80;;;;;;8361550;28;20296;-67
2021/10/27 12:43:43;;;;;;;;;;;35.60;41.80;;;;;;8362524;28;20004;-68
2021/10/27 12:47:44;;;;;;;;;;;35.60;41.80;;;;;;8363142;28;20426;-67
2021/10/27 12:51:45;;;;;;;;;;;36.50;40.40;;;;;;8362530;28;19905;-67
2021/10/27 12:55:45;;;;;;;;;;;36.40;40.10;;;;;;8362605;28;19915;-68
2021/10/27 12:59:46;;;;;;;;;;;36.50;39.30;;;;;;8361976;28;19909;-67
2021/10/27 13:08:05;;;;;;;;;;;36.40;39.20;;;;;;8362008;28;20332;-68
2021/10/27 13:20:49;;;;;;;;;;;35.80;39.70;;;;;;8362341;28;19904;-67
2021/10/27 13:33:29;;;;;;;;;;;35.80;39.50;;;;;;8361585;28;20003;-69
2021/10/27 13:37:30;;;;;;;;;;;35.10;39.90;;;;;;8361227;28;19909;-70
2021/10/27 13:41:31;;;;;;;;;;;31.60;44.00;;;;;;8360261;28;19905;-69
2021/10/27 14:07:03;;;;;;;;;;;19.50;79.10;;;;;;8360602;28;19919;-69
2021/10/27 14:11:15;;;;;;;;;;;18.90;83.90;;;;;;8360201;28;19905;-70
2021/10/27 15:23:42;;;;;;;;;;;13.20;99.90;;;;;;8360031;28;20447;-70
2021/10/27 15:33:03;;;;;;;;;;;12.70;99.90;;;;;;8332222;28;19962;-69
2021/10/27 15:53:27;;;;;;;;;;;11.60;99.90;;;;;;8360601;28;19915;-69
2021/10/27 15:57:27;;;;;;;;;;;11.30;99.90;;;;;;8364590;28;19909;-69
2021/10/27 16:01:28;;;;;;;;;;;11.20;99.90;;;;;;8364046;28;19913;-70
2021/10/27 16:05:29;;;;;;;;;;;10.90;99.90;;;;;;8363352;28;20003;-70
2021/10/27 16:09:36;;;;;;;;;;;10.70;99.90;;;;;;8363663;28;20028;-70
2021/10/27 16:13:36;;;;;;;;;;;10.40;99.90;;;;;;8362646;28;19916;-70
2021/10/27 16:17:38;;;;;;;;;;;10.10;99.90;;;;;;8363399;28;19989;-69
2021/10/27 16:21:39;;;;;;;;;;;10.10;99.90;;;;;;8362353;28;19908;-70
2021/10/27 16:25:40;;;;;;;;;;;10.30;99.90;;;;;;8361770;28;19920;-69
2021/10/27 16:29:40;;;;;;;;;;;10.00;99.90;;;;;;8360562;28;20293;-69
2021/10/27 16:33:44;;;;;;;;;;;9.70;99.90;;;;;;8360150;28;19909;-70
2021/10/27 16:37:45;;;;;;;;;;;9.30;99.90;;;;;;8340664;28;19909;-70
2021/10/27 16:41:46;;;;;;;;;;;9.10;99.90;;;;;;8341510;28;19915;-69
2021/10/27 16:45:47;;;;;;;;;;;8.90;99.90;;;;;;8344021;28;19913;-67
2021/10/27 16:49:48;;;;;;;;;;;8.80;99.90;;;;;;8339807;28;19935;-66
2021/10/27 16:53:48;;;;;;;;;;;8.70;99.90;;;;;;8328440;28;19920;-67
2021/10/27 16:57:50;;;;;;;;;;;8.60;99.90;;;;;;8326419;28;19913;-67
2021/10/27 17:01:51;;;;;;;;;;;8.50;99.90;;;;;;8355274;28;19999;-67
2021/10/27 17:05:51;;;;;;;;;;;8.40;99.90;;;;;;8324151;28;20365;-67
2021/10/27 17:09:52;;;;;;;;;;;8.30;99.90;;;;;;8335822;28;19917;-67
2021/10/27 17:13:53;;;;;;;;;;;8.20;99.90;;;;;;8357345;28;20002;-67
2021/10/27 17:17:53;;;;;;;;;;;8.20;99.90;;;;;;8355620;28;19955;-66
2021/10/27 17:21:54;;;;;;;;;;;8.10;99.90;;;;;;8347888;28;20613;-67
2021/10/27 17:25:55;;;;;;;;;;;8.10;99.90;;;;;;8337724;28;19935;-68
2021/10/27 17:29:55;;;;;;;;;;;8.00;99.90;;;;;;8355734;28;20365;-67
2021/10/27 17:33:57;;;;;;;;;;;8.00;99.90;;;;;;8338962;28;20307;-67
2021/10/27 17:37:58;;;;;;;;;;;8.00;99.90;;;;;;8353195;28;19924;-67
2021/10/27 17:41:59;;;;;;;;;;;7.80;99.90;;;;;;8357179;28;20431;-67
2021/10/27 17:46:04;;;;;;;;;;;7.60;99.90;;;;;;8338343;28;20003;-67
2021/10/27 17:58:38;;;;;;;;;;;7.40;99.90;;;;;;8345055;28;19978;-67
2021/10/27 18:02:41;;;;;;;;;;;7.10;99.90;;;;;;8352389;28;19912;-67
2021/10/27 18:06:41;;;;;;;;;;;7.20;99.90;;;;;;8349765;28;20082;-67
2021/10/27 18:10:43;;;;;;;;;;;6.90;99.90;;;;;;8345300;28;20140;-67
2021/10/27 18:14:44;;;;;;;;;;;6.80;99.90;;;;;;8340099;28;19925;-68
2021/10/27 18:23:31;;;;;;;;;;;6.60;99.90;;;;;;8328901;28;19916;-66
2021/10/27 18:40:51;;;;;;;;;;;6.60;99.90;;;;;;8302958;28;19964;-67
2021/10/27 18:44:51;;;;;;;;;;;6.70;99.90;;;;;;8323315;28;19917;-67
2021/10/27 18:48:52;;;;;;;;;;;6.70;99.90;;;;;;8341380;28;20050;-66
2021/10/27 18:53:02;;;;;;;;;;;6.50;99.90;;;;;;8354370;28;19912;-67
2021/10/27 19:01:23;;;;;;;;;;;6.20;99.90;;;;;;8355525;28;19908;-67
2021/10/27 19:18:21;;;;;;;;;;;5.90;99.90;;;;;;8359315;28;19923;-67
2021/10/27 19:22:22;;;;;;;;;;;6.00;99.90;;;;;;8360519;28;19909;-67
2021/10/27 19:26:33;;;;;;;;;;;5.90;99.90;;;;;;8360834;28;19928;-66
2021/10/27 19:34:49;;;;;;;;;;;6.40;99.90;;;;;;8331612;28;19999;-66
2021/10/27 20:52:25;;;;;;;;;;;7.90;99.90;;;;;;8341335;28;19916;-63
2021/10/27 20:56:28;;;;;;;;;;;8.00;99.90;;;;;;8379093;28;20062;-63
2021/10/27 21:00:45;;;;;;;;;;;8.10;99.90;;;;;;8392534;28;20201;-63
2021/10/27 21:13:24;;;;;;;;;;;8.20;99.90;;;;;;8395235;28;20406;-63
2021/10/27 21:17:28;;;;;;;;;;;8.20;99.90;;;;;;8376985;28;19912;-63
2021/10/27 21:21:29;;;;;;;;;;;8.30;99.90;;;;;;8395039;28;20337;-63
2021/10/27 21:25:32;;;;;;;;;;;8.30;99.90;;;;;;8376923;28;19909;-63
2021/10/27 21:29:47;;;;;;;;;;;8.60;99.90;;;;;;8394649;28;20372;-63
2021/10/27 21:46:47;;;;;;;;;;;8.50;99.90;;;;;;8291693;28;19952;-63
2021/10/27 21:50:49;;;;;;;;;;;8.60;99.90;;;;;;8339634;28;19908;-64
2021/10/27 21:54:50;;;;;;;;;;;8.60;99.90;;;;;;8394170;28;19909;-63
2021/10/27 21:58:52;;;;;;;;;;;8.50;99.90;;;;;;8393728;28;19916;-63
2021/10/27 22:02:53;;;;;;;;;;;8.60;99.90;;;;;;8390987;28;19905;-63
2021/10/27 22:06:53;;;;;;;;;;;8.70;99.90;;;;;;8390193;28;19915;-63
2021/10/27 22:10:54;;;;;;;;;;;8.70;99.90;;;;;;8377383;28;20010;-63
2021/10/27 22:14:56;;;;;;;;;;;8.80;99.90;;;;;;8344443;28;19955;-64
2021/10/27 22:18:57;;;;;;;;;;;8.70;99.90;;;;;;8346913;28;19998;-63
2021/10/27 22:22:57;;;;;;;;;;;8.80;99.90;;;;;;8360167;28;19908;-63
2021/10/27 22:26:58;;;;;;;;;;;8.80;99.90;;;;;;8347850;28;19908;-63
2021/10/27 22:30:59;;;;;;;;;;;8.80;99.90;;;;;;8393860;28;20308;-63
2021/10/27 22:34:59;;;;;;;;;;;8.60;99.90;;;;;;8393428;28;20431;-63
2021/10/27 22:39:00;;;;;;;;;;;8.60;99.90;;;;;;8393327;28;19958;-63
2021/10/27 22:43:00;;;;;;;;;;;8.60;99.90;;;;;;8394054;28;19904;-63
2021/10/27 22:47:02;;;;;;;;;;;8.60;99.90;;;;;;8384641;28;19992;-64
2021/10/27 22:51:03;;;;;;;;;;;8.70;99.90;;;;;;8391099;28;20360;-64
2021/10/27 22:55:04;;;;;;;;;;;8.60;99.90;;;;;;8399683;28;19916;-63
2021/10/27 22:59:07;;;;;;;;;;;8.60;99.90;;;;;;8399289;28;20004;-63
2021/10/27 23:07:34;;;;;;;;;;;8.70;99.90;;;;;;8399023;28;20261;-63
2021/10/27 23:41:41;;;;;;;;;;;8.50;99.90;;;;;;8398210;28;20005;-63
2021/10/27 23:45:42;;;;;;;;;;;8.50;99.90;;;;;;8398190;28;19949;-64
2021/10/27 23:49:45;;;;;;;;;;;8.50;99.90;;;;;;8398112;28;20353;-63
2021/10/27 23:53:51;;;;;;;;;;;8.70;99.90;;;;;;8398058;28;19999;-63
